Desk Aeronautico è consultabile gratuitamente, la pubblicità è l'unico modo per mantenere il sito online. Cercheremo di renderla il meno invasiva possibile, disattiva AdBlock!

Ultimi METAR emessi

Il METAR (Aerodrome routine meteorological report) è un messaggio codificato che descrive le condizioni meteorologiche osservate da una stazione meteo. I METAR sono reperibili presso gli ARO competenti. Scopri come leggere i METAR dalla nostra guida.

La lista degli ultimi METAR emessi da stazioni meteorologiche italiane sono elencati a seguire a puro scopo informativo. L’elenco degli indicatori di località ICAO è disponibile qui.


METAR LIBA 130055Z 27010KT CAVOK 21/15 Q1017 RMK SKC VIS MIN 9999 WIND THR11 28011KT WIND THR29 /////KT BLU=
METAR LIBC 121750Z 01010KT CAVOK 29/15 Q1015=
METAR LIBD 130050Z 29007KT 260V330 CAVOK 22/14 Q1016=
METAR LIBE 130055Z 31014KT CAVOK 17/15 Q1018 RMK SKC MON LIB VAL NIL VIS MIN 9999=
METAR LIBF 121550Z 34021KT 9999 FEW050 26/13 Q1017=
METAR LIBG 121750Z 35016KT CAVOK 28/14 Q1014=
METAR LIBH 121755Z 36013KT CAVOK 29/16 Q1013 RMK FEW FEW200 QUK 2 QUL 1 NE VIS MAR 25 KM VIS MIN 9999=
METAR LIBN 130055Z 34015KT CAVOK 23/19 Q1015 RMK SKC VIS MIN 9999 WIND THR14 34014KT WIND THR32 34015KT BLU=
METAR LIBP 130050Z AUTO 25004KT 9999 FEW043/// 17/16 Q1020=
METAR LIBQ 130055Z 34003KT CAVOK 16/14 Q1022 RMK SKC MON LIB VAL NIL VIS MIN 9999=
METAR LIBR 130050Z 33017KT CAVOK 24/19 Q1014=
METAR LIBS 121755Z 35007KT 9999 SCT020 BKN040 20/20 Q1023 RMK OVC MON INC NC VIS MAX SE 30 KM VIS MIN 9999=
METAR LIBT 121755Z 32016KT 9999 FEW026 25/21 Q1018 RMK BKN SCT080 QUK 2 QUL 1 NW VIS MAR 18 KM VIS MIN 9999=
METAR LIBU 121755Z 00000KT 9999 FEW033 20/17 Q1020 RMK SCT MON LIB VAL NIL VIS MIN 9999=
METAR LIBV 130055Z 33012KT CAVOK 19/16 Q1016 RMK SKC VIS MIN 9999 WIND THR32 34012KT WIND THR14 33012KT BLU=
METAR LIBW 121755Z 01003KT 9999 SCT020 23/21 Q1017 RMK SCT QUK 2 QUL 1 W VIS MAR 18 KM MON LIB VAL NIL VIS MIN 9999=
METAR LIBY 121755Z 02011KT CAVOK 28/17 Q1013 RMK SKC QUK 4 QUL 2 N VIS MAR 20 KM VIS MIN 9999=
METAR LICA 130050Z AUTO VRB02KT 9999 OVC017/// 23/22 Q1015=
METAR LICB 130050Z AUTO VRB02KT 9999 NCD 21/15 Q1015=
METAR LICC 130050Z 26005KT CAVOK 23/21 Q1014=
METAR LICD 130050Z AUTO 27005KT 9999 NCD 23/22 Q1014=
METAR LICE 121755Z 15002KT CAVOK 24/20 Q1017 RMK SKC MON LIB NC VAL NIL NC VIS MIN 9999=
METAR LICF 130055Z 02005KT CAVOK 25/23 Q1015 RMK SKC QUK / QUL / VIS MAR 20 KM MON INVIS NC VIS MIN 9999=
METAR LICG 121750Z 31007KT CAVOK 25/23 Q1017=
METAR LICJ 130050Z 22004KT 200V260 CAVOK 23/19 Q1014=
METAR LICL 121755Z VRB02KT CAVOK 26/24 Q//// RMK SKC QUK 1 QUL 0 VIS MAR 10 KM VIS MIN 9999=
METAR LICO 121755Z 28003KT CAVOK 29/25 Q1013 RMK SKC QUK 1 QUL 0 VIS MAR 25 KM VIS MIN 9999=
METAR LICR 121650Z 35018KT CAVOK 28/20 Q1014 RMK VIS MIN 9999=
METAR LICT 130055Z 13003KT CAVOK 21/19 Q1014 RMK SKC VIS MIN 9999 WIND THR13 30002KT BLU=
METAR LICU 121755Z 36003KT CAVOK 26/22 Q1017 RMK SKC QUK 1 QUL 0 VIS MAR 30 KM VIS MIN 9999=
METAR LICX 121755Z 06007KT 360V100 CAVOK 23/11 Q1019 RMK SKC MON LIB NC VAL NIL NC VIS MIN 9999=
METAR LICZ 130055Z 26005KT CAVOK 24/23 Q1016 RMK SKC VIS MIN 9999 WIND THR28 25004KT WIND THR10 27005KT A3003 BLU=
METAR LIEA 122250Z 35003KT 320V020 CAVOK 20/19 Q1017=
METAR LIEB 130055Z 04009KT CAVOK 23/23 Q1016 RMK SKC QUK / QUL / VIS MAR 0 M MON INVIS VIS MIN 9999=
METAR LIEC 122055Z 06010KT CAVOK 26/22 Q1015 RMK SKC QUK / QUL / VIS MAR 18 KM VIS MIN 9999=
METAR LIED 130055Z 35005KT CAVOK 23/20 Q1015 RMK BKN BKN300 VIS MIN 9999 WIND THR35 36005KT WIND THR17 /////KT BLU=
METAR LIEE 130050Z 32006KT CAVOK 22/20 Q1015=
METAR LIEF 121755Z 29005KT CAVOK 23/21 Q1016 RMK SKC QUK 1 QUL 9 VIS MAR 20 KM VIS MIN 9999=
METAR LIEH 130055Z 35005KT CAVOK 20/17 Q1016 RMK SKC QUK / QUL / VIS MAR 20 KM VIS MIN 9999=
METAR LIEL 100955Z 16006KT 9999 FEW015 30/22 Q1015 RMK FEW VIS MAR 18 KM MON LIB VIS MIN 9999=
METAR LIEO 130050Z 25003KT CAVOK 22/20 Q1016=
METAR LIEP 100855Z 28006KT 9999 FEW030 26/14 Q1018 RMK FEW VIS MIN 9999=
METAR LIMC 130050Z 09006KT 9999 SCT050 20/13 Q1022 NOSIG=
METAR LIME 130050Z 05003KT 020V090 9999 BKN060 21/12 Q1022 NOSIG=
METAR LIMF 130050Z 03006KT 9999 BKN080 21/16 Q1022=
METAR LIMG 121750Z 03009KT 330V060 9999 BKN060 28/13 Q1018=
METAR LIMH 122355Z 19008KT CAVOK 02/01 Q1034 RMK SKC MON LIB VAL CLD SCT VIS MIN 9999=
METAR LIMJ 130050Z 04009KT CAVOK 24/15 Q1018=
METAR LIMK 130055Z 06005KT CAVOK 20/18 Q1022 RMK BKN BKN060 VAL NIL VIS MIN 9999=
METAR LIML 130050Z AUTO 06005KT 9999 BKN079/// 21/13 Q1021=
METAR LIMN 101755Z 01005KT 9999 FEW030 27/18 Q1013 RMK SCT SCT200 VIS MIN 9999 BLU=
METAR LIMP 122050Z 10006KT CAVOK 22/14 Q1021=
METAR LIMS 121755Z 11010KT 080V120 9999 FEW040 25/14 Q1018 RMK FEW VIS MIN 9999 WIND THR30 10010KT BLU=
METAR LIMU 130055Z 02011KT CAVOK 24/14 Q1019 RMK SCT SCT070 QUK / QUL / VIS MAR 25 KM VIS MIN 9999=
METAR LIMV 111755Z /////KT 9999 BKN007 21/20 Q1016 RMK BKN SCT070 MON CIME INC NC VAL NIL VIS MIN 9999=
METAR LIMY 121755Z 21007KT CAVOK 23/18 Q1021 RMK BKN BKN070 VAL FOSCHIA VIS MIN 9999=
METAR LIMZ 121850Z 27003KT 9999 BKN080 22/17 Q1020=
METAR LIPA 101755Z 18004KT 9999 28/21 Q1013 RMK SCT SCT200 VIS MIN 9999 WIND THR05 /////KT WIND THR23 /////KT A2992 BLU=
METAR LIPB 122050Z 16005KT 130V200 CAVOK 22/13 Q1021 RMK MON INVIS=
METAR LIPC 130055Z 24004KT CAVOK 16/14 Q1021 RMK SKC VIS MIN 9999 WIND THR11 24003KT WIND THR29 21003KT BLU=
METAR LIPE 130050Z 20005KT CAVOK 17/13 Q1021=
METAR LIPF 121755Z /////KT CAVOK 25/13 Q1020 RMK SKC VIS MIN 9999=
METAR LIPH 130050Z AUTO 03006KT 9999 OVC069/// 21/09 Q1022=
METAR LIPI 100955Z 15003KT CAVOK 28/15 Q1015 RMK FEW FEW120 VIS MIN 9999 WIND THR06 22003KT WIND THR24 17003KT BLU=
METAR LIPK 101550Z 10010KT CAVOK 31/18 Q1013=
METAR LIPL 130055Z /////KT 9999 SCT070 22/14 Q1021 RMK SCT VIS MIN 9999 WIND THR31 05003KT WIND THR13 06002KT BLU=
METAR LIPO 130050Z 05006KT CAVOK 22/12 Q1022=
METAR LIPQ 130050Z AUTO 08008KT 9999 NCD 20/07 Q1022=
METAR LIPR 130050Z AUTO 05008KT 010V080 9999 NCD 22/09 Q1021=
METAR LIPS 130055Z /////KT 9999 BKN070 21/11 Q1022 RMK BKN VIS MIN 9999 WIND THR26 06009KT WIND THR08 06009KT BLU=
METAR LIPU 121350Z 11007KT 070V160 CAVOK 27/11 Q1020=
METAR LIPX 130050Z AUTO 05009KT 020V080 9999 BKN083/// 22/10 Q1021=
METAR LIPY 130050Z AUTO 19004KT 9999 NCD 18/13 Q1020=
METAR LIPZ 130050Z 03011KT 9999 BKN068 21/10 Q1022 NOSIG=
METAR LIQB 121755Z 03007KT 290V080 CAVOK 25/13 Q1018 RMK FEW FEW090 VIS MIN 9999=
METAR LIQC 121755Z 36003KT CAVOK 27/21 Q1015 RMK SKC QUK 1 QUL 0 VIS MAR 15 KM VIS MIN 9999=
METAR LIQJ 130055Z AUTO VRB01KT //// 25/15 Q1015=
METAR LIQK 121755Z 02005KT CAVOK 27/26 Q1016 RMK SKC QUK 1 QUL 0 VIS MAR 20 KM VIS MIN 9999=
METAR LIQN 121750Z 12014KT CAVOK 26/16 Q1016=
METAR LIQO 121755Z 01006KT 9999 FEW003 28/14 Q1018 RMK FEW VAL NIL NC VIS MIN 9999=
METAR LIQW 101155Z 00000KT 9999 FEW025 27/16 Q1016 RMK SCT VIS MIN 9999 WIND THR18 21004KT BLU=
METAR LIQZ 122255Z 06003KT CAVOK 25/23 Q1016 RMK SKC QUK / QUL / VIS MAR 20 KM VIS MIN 9999=
METAR LIRA 130050Z VRB01KT CAVOK 23/21 Q1016=
METAR LIRB 101355Z AUTO VRB04KT //// 33/10 Q1015=
METAR LIRE 130055Z 04003KT CAVOK 22/20 Q1015 RMK SKC VIS MIN 9999 WIND THR13 050003KT WIND THR31 06003KT BLU=
METAR LIRF 130050Z 02006KT CAVOK 23/14 Q1015 NOSIG=
METAR LIRG 101755Z 24007KT CAVOK 32/13 Q1014 RMK SKC MON NE LIB NC VIS MIN 9999 BLU=
METAR LIRH 101455Z 19010KT 9999 SCT035 33/21 Q1012 RMK SCT MON LIB NC VIS MIN 9999 WIND THR16 /////KT BLU=
METAR LIRK 130055Z AUTO 35005KT //// 13/08 Q1025=
METAR LIRL 101755Z 27007KT CAVOK 30/15 Q1013 RMK SKC MON LIB NC VIS MIN 9999 WIND THR12 28007KT WIND THR30 /////KT BLU=
METAR LIRM 130055Z 03006KT CAVOK 22/16 Q1016 RMK SKC VIS MIN 9999 WIND THR06 02008KT BLU=
METAR LIRN 130050Z 08007KT 050V110 CAVOK 24/12 Q1016 NOSIG=
METAR LIRP 130045Z 03006KT CAVOK 23/08 Q1017 NOSIG RMK SKC VIS MIN 9999 WIND THR04 04004KT WIND THR22 03004KT BLU=
METAR LIRQ 130050Z VRB05KT CAVOK 22/09 Q1019=
METAR LIRS 130055Z 01011KT CAVOK 23/08 Q1016 RMK BKN FEW100 BKN200 VIS MIN 9999 WIND THR03 02012KT WIND THR21 01010KT BLU=
METAR LIRT 101755Z 12007KT 9999 FEW011 22/05 Q1020 RMK FEW MON LIB VAL NIL VIS MIN 9999=
METAR LIRU 121750Z 22005KT CAVOK 29/19 Q1015=
METAR LIRV 121755Z 04014KT 9999 FEW025 28/16 Q1016 RMK FEW MON E SE LIB NC VIS MIN 9999 WIND THR04 /////KT BLU=
METAR LIRX 121755Z 01007KT 9999 FEW015 29/22 Q1016 RMK SCT VIS MIN 9999 VIS MAR 20 KM=
METAR LIRZ 130050Z AUTO 02008KT 9999 NCD 20/09 Q1019=
METAR LIVC 130055Z AUTO 08024KT //// 07/01 Q1028=
METAR LIVD 121755Z /////KT 9999 SCT050 17/07 Q1025 RMK SCT VIS MIN 9999 BLU=
METAR LIVE 130055Z 04003KT CAVOK 10/09 Q1027 RMK SKC VIS MIN 9999=
METAR LIVF 130055Z 00000KT CAVOK 17/09 Q1020 RMK SKC MON LIB VAL NIL VIS MIN 9999=
METAR LIVM 111855Z AUTO 06010KT //// 28/21 Q1012=
METAR LIVO 121755Z 05003KT 9999 FEW035 17/09 Q1023 RMK FEW VIS MIN 9999=
METAR LIVP 130055Z 23005KT 0000 FG VV/// 07/07 Q1028 RMK MON INVIS VAL INVIS VIS MIN 0000=
METAR LIVR 122355Z 13007KT 0000 FG VV/// 09/07 Q1026 RMK MON INVIS VIS MIN 0000=
METAR LIVT 130055Z /////KT CAVOK 20/07 Q1021 RMK SKC QUK / QUL / VIS MAR 20 KM VIS MIN 9999=

Informazioni elaborate dal Servizio Meteorologico dell’Aeronautica Militare e pubblicate sul sito www.meteoam.it